createdAt,value
2023-05-02T00:01:47.057Z,5.93
2023-05-02T00:04:13.417Z,5.33
2023-05-02T00:06:39.896Z,5.20
2023-05-02T00:09:06.241Z,5.43
2023-05-02T00:11:32.481Z,5.90
2023-05-02T00:13:58.790Z,5.90
2023-05-02T00:16:25.212Z,5.07
2023-05-02T00:18:51.527Z,5.10
2023-05-02T00:21:17.776Z,5.43
2023-05-02T00:23:44.162Z,5.10
2023-05-02T00:26:10.629Z,5.80
2023-05-02T00:28:36.959Z,5.30
2023-05-02T00:31:04.547Z,5.77
2023-05-02T00:33:30.829Z,5.10
2023-05-02T00:35:57.072Z,5.57
2023-05-02T00:38:23.342Z,5.60
2023-05-02T00:40:52.108Z,5.20
2023-05-02T00:43:18.509Z,5.50
2023-05-02T00:45:46.228Z,5.20
2023-05-02T00:48:12.921Z,4.87
2023-05-02T00:50:42.786Z,5.53
2023-05-02T00:53:10.170Z,5.53
2023-05-02T00:55:36.506Z,5.80
2023-05-02T00:58:04.783Z,5.57
2023-05-02T01:00:35.769Z,5.07
2023-05-02T01:03:17.915Z,5.37
2023-05-02T01:06:04.515Z,5.63
2023-05-02T01:08:40.253Z,6.07
2023-05-02T01:11:16.368Z,5.00
2023-05-02T01:13:44.006Z,5.63
2023-05-02T01:16:11.610Z,5.77
2023-05-02T01:18:39.311Z,6.10
2023-05-02T01:21:07.812Z,6.07
2023-05-02T01:23:53.249Z,5.67
2023-05-02T01:26:28.584Z,5.70
2023-05-02T01:29:05.586Z,5.60
2023-05-02T01:31:34.696Z,5.47
2023-05-02T01:34:02.292Z,5.63
2023-05-02T01:36:30.431Z,5.70
2023-05-02T01:38:57.241Z,5.60
2023-05-02T01:41:26.301Z,5.70
2023-05-02T01:43:53.905Z,5.70
2023-05-02T01:46:21.669Z,5.40
2023-05-02T01:48:49.814Z,5.73
2023-05-02T01:51:17.871Z,5.40
2023-05-02T01:53:45.946Z,5.60
2023-05-02T01:56:12.772Z,5.77
2023-05-02T01:58:39.751Z,5.20
2023-05-02T02:01:06.401Z,5.17
2023-05-02T02:03:32.919Z,5.93
2023-05-02T02:05:59.797Z,5.40
2023-05-02T02:08:26.309Z,5.23
2023-05-02T02:10:55.621Z,5.37
2023-05-02T02:13:31.113Z,5.40
2023-05-02T02:15:59.284Z,5.43
2023-05-02T02:18:26.545Z,5.60
2023-05-02T02:20:55.399Z,5.30
2023-05-02T02:23:23.165Z,4.97
2023-05-02T02:25:50.910Z,5.57
2023-05-02T02:28:17.214Z,5.03
2023-05-02T02:30:43.489Z,5.07
2023-05-02T02:33:09.782Z,5.10
2023-05-02T02:35:38.927Z,4.43
2023-05-02T02:38:25.741Z,4.70
2023-05-02T02:40:57.394Z,4.80
2023-05-02T02:43:46.069Z,4.77
2023-05-02T02:46:28.605Z,4.57
2023-05-02T02:49:07.981Z,4.90
2023-05-02T02:51:52.947Z,4.50
2023-05-02T02:54:40.341Z,4.60
2023-05-02T02:57:17.682Z,5.00
2023-05-02T02:59:49.640Z,4.70
2023-05-02T03:02:18.738Z,4.10
2023-05-02T03:04:47.167Z,4.57
2023-05-02T03:07:13.693Z,4.70
2023-05-02T03:09:46.672Z,4.40
2023-05-02T03:12:13.455Z,4.70
2023-05-02T03:14:40.176Z,5.00
2023-05-02T03:17:08.383Z,4.90
2023-05-02T03:19:34.897Z,4.80
2023-05-02T03:22:01.176Z,4.47
2023-05-02T03:24:30.132Z,4.47
2023-05-02T03:26:56.848Z,4.73
2023-05-02T03:29:23.406Z,5.03
2023-05-02T03:31:49.669Z,4.40
2023-05-02T03:34:16.050Z,4.60
2023-05-02T03:36:42.352Z,4.40
2023-05-02T03:39:08.921Z,4.63
2023-05-02T03:41:35.158Z,4.50
2023-05-02T03:44:01.406Z,4.50
2023-05-02T03:46:27.696Z,4.50
2023-05-02T03:48:53.939Z,4.87
2023-05-02T03:51:20.222Z,4.43
2023-05-02T03:53:46.497Z,4.50
2023-05-02T03:56:12.799Z,4.40
2023-05-02T03:58:39.088Z,3.90
2023-05-02T04:01:13.130Z,4.57
2023-05-02T04:03:39.434Z,4.17
2023-05-02T04:06:05.983Z,4.60
2023-05-02T04:08:32.422Z,4.33
2023-05-02T04:10:58.682Z,4.43
2023-05-02T04:13:24.990Z,4.03
2023-05-02T04:15:51.217Z,4.03
2023-05-02T04:18:17.514Z,4.20
2023-05-02T04:20:45.610Z,3.87
2023-05-02T04:23:12.055Z,4.07
2023-05-02T04:25:38.371Z,3.67
2023-05-02T04:28:05.506Z,4.10
2023-05-02T04:30:31.859Z,3.83
2023-05-02T04:32:58.224Z,3.67
2023-05-02T04:35:24.521Z,3.60
2023-05-02T04:37:51.105Z,3.53
2023-05-02T04:40:17.342Z,3.50
2023-05-02T04:42:43.661Z,3.70
2023-05-02T04:45:09.925Z,3.70
2023-05-02T04:47:36.368Z,3.50
2023-05-02T04:50:02.846Z,3.23
2023-05-02T04:52:30.202Z,3.57
2023-05-02T04:54:57.072Z,3.40
2023-05-02T04:57:23.578Z,3.43
2023-05-02T04:59:49.916Z,3.47
2023-05-02T05:02:16.404Z,2.80
2023-05-02T05:04:42.772Z,3.30
2023-05-02T05:07:09.088Z,3.37
2023-05-02T05:09:35.560Z,3.40
2023-05-02T05:12:02.011Z,3.30
2023-05-02T05:14:28.608Z,3.70
2023-05-02T05:16:54.854Z,3.40
2023-05-02T05:19:21.114Z,3.77
2023-05-02T05:21:47.411Z,4.00
2023-05-02T05:24:13.697Z,3.50
2023-05-02T05:26:40.274Z,3.27
2023-05-02T05:29:07.674Z,3.63
2023-05-02T05:31:34.098Z,3.63
2023-05-02T05:34:01.524Z,3.67
2023-05-02T05:36:27.962Z,3.50
2023-05-02T05:38:57.422Z,3.43
2023-05-02T05:41:24.701Z,4.03
2023-05-02T05:43:51.086Z,4.30
2023-05-02T05:46:17.332Z,4.00
2023-05-02T05:48:43.550Z,3.60
2023-05-02T05:51:09.790Z,3.70
2023-05-02T05:53:36.158Z,3.70
2023-05-02T05:56:21.876Z,3.97
2023-05-02T05:58:48.173Z,4.10
2023-05-02T06:01:15.201Z,4.27
2023-05-02T06:03:41.757Z,4.60
2023-05-02T06:06:08.221Z,4.17
2023-05-02T06:08:34.575Z,4.20
2023-05-02T06:11:00.857Z,4.43
2023-05-02T06:13:27.116Z,4.83
2023-05-02T06:15:53.466Z,4.47
2023-05-02T06:18:19.732Z,4.30
2023-05-02T06:20:45.964Z,4.73
2023-05-02T06:23:12.189Z,4.57
2023-05-02T06:25:38.549Z,4.97
2023-05-02T06:28:04.843Z,5.50
2023-05-02T06:30:31.204Z,5.43
2023-05-02T06:32:57.505Z,5.53
2023-05-02T06:35:23.824Z,6.63
2023-05-02T06:37:50.270Z,7.53
2023-05-02T06:40:16.523Z,7.53
2023-05-02T06:42:42.797Z,7.53
2023-05-02T06:45:09.249Z,7.43
2023-05-02T06:47:35.810Z,7.03
2023-05-02T06:50:02.540Z,7.37
2023-05-02T06:52:29.002Z,7.60
2023-05-02T06:54:55.441Z,7.30
2023-05-02T06:57:21.723Z,6.90
2023-05-02T06:59:48.160Z,7.20
2023-05-02T07:02:14.436Z,6.60
2023-05-02T07:04:40.877Z,7.35
2023-05-02T07:07:07.279Z,6.53
2023-05-02T07:09:33.613Z,6.33
2023-05-02T07:12:00.929Z,6.50
2023-05-02T07:14:27.238Z,5.90
2023-05-02T07:16:53.724Z,5.73
2023-05-02T07:19:20.246Z,5.87
2023-05-02T07:21:46.675Z,6.13
2023-05-02T07:24:12.916Z,5.77
2023-05-02T07:26:39.313Z,6.20
2023-05-02T07:29:06.845Z,6.30
2023-05-02T07:31:33.302Z,6.13
2023-05-02T07:33:59.592Z,6.10
2023-05-02T07:36:26.222Z,6.17
2023-05-02T07:38:52.752Z,5.93
2023-05-02T07:41:19.111Z,5.93
2023-05-02T07:43:45.512Z,6.23
2023-05-02T07:46:11.898Z,6.37
2023-05-02T07:48:38.303Z,6.37
2023-05-02T07:51:08.042Z,5.90
2023-05-02T07:53:35.434Z,5.70
2023-05-02T07:56:03.619Z,6.50
2023-05-02T07:58:29.934Z,6.27
2023-05-02T08:00:57.001Z,6.10
2023-05-02T08:03:23.476Z,5.90
2023-05-02T08:05:49.938Z,5.93
2023-05-02T08:08:16.517Z,5.93
2023-05-02T08:10:43.095Z,5.80
2023-05-02T08:13:09.381Z,6.70
2023-05-02T08:15:35.756Z,6.23
2023-05-02T08:18:02.053Z,6.20
2023-05-02T08:20:28.420Z,6.47
2023-05-02T08:22:54.639Z,6.90
2023-05-02T08:25:20.950Z,6.10
2023-05-02T08:27:47.197Z,6.50
2023-05-02T08:30:13.458Z,5.50
2023-05-02T08:32:39.840Z,5.13
2023-05-02T08:35:06.746Z,5.17
2023-05-02T08:37:33.056Z,5.20
2023-05-02T08:40:00.380Z,4.37
2023-05-02T08:42:27.560Z,4.13
2023-05-02T08:44:53.896Z,4.03
2023-05-02T08:47:21.689Z,4.70
2023-05-02T08:49:48.660Z,4.23
2023-05-02T08:52:15.611Z,3.97
2023-05-02T08:54:42.247Z,4.10
2023-05-02T08:57:08.531Z,4.17
2023-05-02T08:59:34.988Z,3.30
2023-05-02T09:02:05.042Z,3.30
2023-05-02T09:04:33.169Z,3.87
2023-05-02T09:06:59.529Z,3.27
2023-05-02T09:09:26.818Z,3.90
2023-05-02T09:11:53.115Z,3.97
2023-05-02T09:14:19.419Z,3.63
2023-05-02T09:16:45.707Z,3.50
2023-05-02T09:19:23.472Z,3.57
2023-05-02T09:21:49.808Z,3.20
2023-05-02T09:24:20.122Z,3.50
2023-05-02T09:27:05.770Z,3.30
2023-05-02T09:29:36.665Z,3.30
2023-05-02T09:32:03.995Z,3.60
2023-05-02T09:34:31.530Z,3.90
2023-05-02T09:36:58.355Z,4.20
2023-05-02T09:39:26.363Z,3.90
2023-05-02T09:41:52.846Z,4.10
2023-05-02T09:44:20.129Z,3.87
2023-05-02T09:46:50.222Z,2.83
2023-05-02T09:49:20.141Z,3.00
2023-05-02T09:51:47.333Z,3.30
2023-05-02T09:54:14.094Z,3.43
2023-05-02T09:56:53.785Z,3.43
2023-05-02T09:59:20.392Z,4.00
2023-05-02T10:01:55.044Z,3.90
2023-05-02T10:04:22.002Z,3.90
2023-05-02T10:06:50.097Z,3.47
2023-05-02T10:09:20.821Z,3.70
2023-05-02T10:11:50.949Z,3.40
2023-05-02T10:14:18.392Z,3.37
2023-05-02T10:16:55.227Z,3.17
2023-05-02T10:19:24.396Z,3.10
2023-05-02T10:21:50.849Z,3.53
2023-05-02T10:24:17.259Z,3.63
2023-05-02T10:26:43.697Z,3.40
2023-05-02T10:29:10.846Z,4.17
2023-05-02T10:31:39.628Z,3.67
2023-05-02T10:34:07.169Z,3.47
2023-05-02T10:36:33.718Z,3.10
2023-05-02T10:39:00.897Z,3.00
2023-05-02T10:41:29.095Z,2.83
2023-05-02T10:43:56.252Z,2.63
2023-05-02T10:46:32.459Z,2.53
2023-05-02T10:49:01.894Z,2.40
2023-05-02T10:51:29.737Z,2.93
2023-05-02T10:54:15.952Z,2.77
2023-05-02T10:57:03.998Z,2.93
2023-05-02T10:59:31.543Z,3.67
2023-05-02T11:01:58.169Z,4.37
2023-05-02T11:04:24.516Z,4.47
2023-05-02T11:06:56.943Z,5.17
2023-05-02T11:09:23.245Z,5.50
2023-05-02T11:11:50.661Z,5.50
2023-05-02T11:14:42.259Z,5.30
2023-05-02T11:17:09.410Z,5.43
2023-05-02T11:19:56.075Z,5.40
2023-05-02T11:22:24.015Z,5.17
2023-05-02T11:24:50.803Z,4.80
2023-05-02T11:27:29.399Z,4.90
2023-05-02T11:29:59.354Z,5.00
2023-05-02T11:32:45.735Z,4.50
2023-05-02T11:35:18.690Z,4.33
2023-05-02T11:37:55.022Z,4.07
2023-05-02T11:40:21.878Z,4.53
2023-05-02T11:42:48.167Z,4.27
2023-05-02T11:45:14.414Z,3.70
2023-05-02T11:47:41.326Z,3.87
2023-05-02T11:50:09.427Z,4.57
2023-05-02T11:52:39.433Z,3.63
2023-05-02T11:55:06.975Z,3.90
2023-05-02T11:57:33.799Z,3.80
2023-05-02T12:00:00.516Z,3.33
2023-05-02T12:02:43.509Z,3.37
2023-05-02T12:05:11.079Z,3.47
2023-05-02T12:07:38.063Z,2.90
2023-05-02T12:10:04.639Z,3.33
2023-05-02T12:12:31.335Z,3.83
2023-05-02T12:14:57.636Z,3.10
2023-05-02T12:17:24.317Z,3.83
2023-05-02T12:19:50.686Z,3.67
2023-05-02T12:22:17.660Z,3.20
2023-05-02T12:24:44.503Z,3.33
2023-05-02T12:27:14.200Z,3.43
2023-05-02T12:29:45.133Z,3.10
2023-05-02T12:32:11.730Z,3.57
2023-05-02T12:34:38.836Z,3.60
2023-05-02T12:37:06.231Z,3.83
2023-05-02T12:39:42.831Z,4.30
2023-05-02T12:42:12.926Z,3.67
2023-05-02T12:44:39.903Z,3.63
2023-05-02T12:47:07.938Z,4.27
2023-05-02T12:49:48.118Z,3.97
2023-05-02T12:52:14.343Z,4.00
2023-05-02T12:54:40.784Z,3.90
2023-05-02T12:57:07.859Z,3.87
2023-05-02T12:59:34.225Z,3.73
2023-05-02T13:02:00.787Z,3.73
2023-05-02T13:04:34.238Z,4.20
2023-05-02T13:07:01.153Z,4.37
2023-05-02T13:09:27.427Z,4.20
2023-05-02T13:11:54.182Z,4.33
2023-05-02T13:14:20.540Z,4.30
2023-05-02T13:16:46.910Z,3.77
2023-05-02T13:19:13.309Z,3.60
2023-05-02T13:21:39.570Z,3.83
2023-05-02T13:24:05.886Z,3.70
2023-05-02T13:26:32.331Z,3.87
2023-05-02T13:28:58.612Z,3.80
2023-05-02T13:31:24.941Z,3.40
2023-05-02T13:33:51.242Z,3.23
2023-05-02T13:36:17.503Z,3.03
2023-05-02T13:38:44.420Z,3.87
2023-05-02T13:41:10.795Z,3.23
2023-05-02T13:43:37.207Z,4.07
2023-05-02T13:46:03.455Z,3.80
2023-05-02T13:48:30.055Z,3.60
2023-05-02T13:50:56.296Z,3.60
2023-05-02T13:53:22.559Z,4.03
2023-05-02T13:55:48.856Z,3.77
2023-05-02T13:58:15.295Z,3.87
2023-05-02T14:00:41.881Z,3.80
2023-05-02T14:03:11.119Z,3.80
2023-05-02T14:05:40.935Z,3.80
2023-05-02T14:08:08.247Z,4.17
2023-05-02T14:10:36.335Z,3.77
2023-05-02T14:13:02.607Z,4.53
2023-05-02T14:15:29.028Z,4.13
2023-05-02T14:17:55.377Z,3.67
2023-05-02T14:20:23.495Z,4.17
2023-05-02T14:22:50.064Z,3.30
2023-05-02T14:25:19.618Z,3.83
2023-05-02T14:27:46.427Z,3.70
2023-05-02T14:30:12.994Z,4.00
2023-05-02T14:32:39.302Z,4.60
2023-05-02T14:35:05.930Z,3.63
2023-05-02T14:37:37.336Z,3.50
2023-05-02T14:40:04.079Z,3.73
2023-05-02T14:42:30.766Z,3.87
2023-05-02T14:44:58.915Z,3.90
2023-05-02T14:47:27.713Z,3.63
2023-05-02T14:49:53.953Z,3.57
2023-05-02T14:52:20.190Z,4.17
2023-05-02T14:54:47.057Z,3.53
2023-05-02T14:57:13.386Z,3.47
2023-05-02T14:59:40.326Z,3.50
2023-05-02T15:02:06.762Z,2.97
2023-05-02T15:04:33.115Z,3.20
2023-05-02T15:07:02.686Z,3.27
2023-05-02T15:09:29.222Z,4.60
2023-05-02T15:11:56.083Z,3.47
2023-05-02T15:14:22.397Z,3.87
2023-05-02T15:16:48.637Z,3.10
2023-05-02T15:19:14.930Z,2.67
2023-05-02T15:21:41.189Z,3.47
2023-05-02T15:24:07.941Z,3.30
2023-05-02T15:26:34.166Z,3.03
2023-05-02T15:29:00.485Z,3.20
2023-05-02T15:31:27.853Z,3.17
2023-05-02T15:33:54.123Z,4.03
2023-05-02T15:36:20.442Z,3.33
2023-05-02T15:38:46.852Z,3.50
2023-05-02T15:41:13.254Z,3.10
2023-05-02T15:43:39.589Z,2.83
2023-05-02T15:46:05.991Z,3.73
2023-05-02T15:48:35.851Z,3.57
2023-05-02T15:51:02.814Z,3.20
2023-05-02T15:53:29.194Z,3.00
2023-05-02T15:55:55.695Z,3.50
2023-05-02T15:58:22.155Z,3.37
2023-05-02T16:00:48.618Z,3.40
2023-05-02T16:03:15.698Z,2.90
2023-05-02T16:05:42.104Z,3.07
2023-05-02T16:08:08.428Z,3.13
2023-05-02T16:10:36.509Z,3.43
2023-05-02T16:13:02.970Z,3.40
2023-05-02T16:15:30.297Z,3.10
2023-05-02T16:17:56.626Z,3.03
2023-05-02T16:20:22.898Z,3.13
2023-05-02T16:22:49.334Z,3.40
2023-05-02T16:25:16.358Z,3.30
2023-05-02T16:27:42.906Z,2.83
2023-05-02T16:30:09.455Z,3.07
2023-05-02T16:32:37.622Z,3.30
2023-05-02T16:35:07.449Z,3.57
2023-05-02T16:37:34.772Z,3.47
2023-05-02T16:40:01.809Z,2.93
2023-05-02T16:42:28.657Z,3.30
2023-05-02T16:44:55.966Z,2.90
2023-05-02T16:47:22.570Z,3.00
2023-05-02T16:49:52.379Z,3.30
2023-05-02T16:52:18.709Z,3.00
2023-05-02T16:54:45.012Z,2.77
2023-05-02T16:57:11.385Z,3.10
2023-05-02T16:59:37.624Z,3.00
2023-05-02T17:02:03.911Z,3.03
2023-05-02T17:04:30.310Z,2.90
2023-05-02T17:06:56.683Z,3.00
2023-05-02T17:09:23.129Z,2.70
2023-05-02T17:11:50.189Z,2.97
2023-05-02T17:14:16.438Z,3.00
2023-05-02T17:16:42.806Z,3.10
2023-05-02T17:19:09.127Z,3.07
2023-05-02T17:21:35.811Z,3.07
2023-05-02T17:24:02.610Z,3.43
2023-05-02T17:26:28.993Z,3.00
2023-05-02T17:28:55.532Z,3.23
2023-05-02T17:31:22.223Z,2.90
2023-05-02T17:33:48.646Z,2.97
2023-05-02T17:36:14.876Z,2.53
2023-05-02T17:38:41.865Z,2.53
2023-05-02T17:41:08.232Z,2.50
2023-05-02T17:43:34.583Z,2.60
2023-05-02T17:46:06.266Z,2.77
2023-05-02T17:48:32.653Z,3.00
2023-05-02T17:51:00.916Z,2.70
2023-05-02T17:53:27.163Z,2.40
2023-05-02T17:55:53.380Z,2.93
2023-05-02T17:58:19.647Z,2.80
2023-05-02T18:00:46.001Z,2.80
2023-05-02T18:03:12.354Z,2.87
2023-05-02T18:05:39.698Z,3.23
2023-05-02T18:08:07.472Z,3.00
2023-05-02T18:10:40.406Z,2.97
2023-05-02T18:13:06.781Z,2.80
2023-05-02T18:15:33.049Z,2.73
2023-05-02T18:17:59.325Z,2.73
2023-05-02T18:20:25.731Z,2.90
2023-05-02T18:22:52.116Z,2.90
2023-05-02T18:25:18.399Z,2.83
2023-05-02T18:27:44.694Z,2.80
2023-05-02T18:30:11.180Z,2.80
2023-05-02T18:32:37.445Z,2.30
2023-05-02T18:35:04.269Z,2.77
2023-05-02T18:37:34.588Z,2.53
2023-05-02T18:40:01.350Z,2.50
2023-05-02T18:42:27.841Z,2.67
2023-05-02T18:44:54.142Z,2.50
2023-05-02T18:47:21.488Z,2.80
2023-05-02T18:49:48.055Z,2.30
2023-05-02T18:52:14.356Z,2.60
2023-05-02T18:54:40.678Z,2.50
2023-05-02T18:57:07.585Z,2.77
2023-05-02T18:59:33.928Z,2.50
2023-05-02T19:02:01.207Z,2.63
2023-05-02T19:04:30.137Z,2.60
2023-05-02T19:06:59.594Z,2.43
2023-05-02T19:09:25.932Z,2.43
2023-05-02T19:11:53.964Z,2.50
2023-05-02T19:14:20.472Z,2.30
2023-05-02T19:16:46.969Z,2.30
2023-05-02T19:19:13.266Z,2.10
2023-05-02T19:21:39.640Z,2.77
2023-05-02T19:24:06.074Z,2.40
2023-05-02T19:26:32.392Z,2.43
2023-05-02T19:28:58.729Z,2.70
2023-05-02T19:31:25.151Z,2.10
2023-05-02T19:33:54.956Z,2.47
2023-05-02T19:36:24.806Z,2.37
2023-05-02T19:38:52.141Z,2.53
2023-05-02T19:41:18.556Z,2.80
2023-05-02T19:43:44.836Z,2.03
2023-05-02T19:46:11.416Z,2.13
2023-05-02T19:48:37.744Z,2.17
2023-05-02T19:51:04.678Z,2.40
2023-05-02T19:53:31.924Z,2.27
2023-05-02T19:55:58.827Z,2.07
2023-05-02T19:58:25.414Z,2.10
2023-05-02T20:00:52.227Z,2.20
2023-05-02T20:03:18.623Z,2.43
2023-05-02T20:05:44.938Z,2.30
2023-05-02T20:08:11.286Z,2.33
2023-05-02T20:10:37.587Z,2.70
2023-05-02T20:13:03.844Z,2.33
2023-05-02T20:15:30.089Z,2.33
2023-05-02T20:17:58.116Z,2.20
2023-05-02T20:20:25.007Z,2.23
2023-05-02T20:22:51.682Z,2.20
2023-05-02T20:25:17.967Z,2.10
2023-05-02T20:27:44.259Z,2.03
2023-05-02T20:30:10.735Z,2.10
2023-05-02T20:32:37.183Z,2.23
2023-05-02T20:35:03.579Z,1.77
2023-05-02T20:37:30.181Z,2.30
2023-05-02T20:39:56.566Z,2.40
2023-05-02T20:42:25.354Z,2.53
2023-05-02T20:44:55.538Z,2.50
2023-05-02T20:47:22.626Z,2.50
2023-05-02T20:49:49.085Z,2.30
2023-05-02T20:52:15.648Z,2.17
2023-05-02T20:54:43.031Z,1.90
2023-05-02T20:57:09.482Z,2.00
2023-05-02T20:59:35.842Z,2.30
2023-05-02T21:02:02.310Z,2.47
2023-05-02T21:04:28.693Z,2.40
2023-05-02T21:06:56.755Z,2.23
2023-05-02T21:09:23.548Z,2.30
2023-05-02T21:11:49.919Z,2.30
2023-05-02T21:14:16.616Z,2.27
2023-05-02T21:16:43.129Z,1.97
2023-05-02T21:19:09.442Z,1.97
2023-05-02T21:21:35.704Z,2.77
2023-05-02T21:24:02.040Z,2.03
2023-05-02T21:26:28.340Z,2.23
2023-05-02T21:28:54.961Z,2.20
2023-05-02T21:31:21.305Z,2.57
2023-05-02T21:33:47.649Z,2.00
2023-05-02T21:36:13.920Z,2.07
2023-05-02T21:38:43.248Z,2.33
2023-05-02T21:41:09.507Z,2.57
2023-05-02T21:43:38.184Z,2.57
2023-05-02T21:46:04.497Z,2.07
2023-05-02T21:48:30.953Z,2.20
2023-05-02T21:50:57.231Z,1.87
2023-05-02T21:53:23.508Z,1.90
2023-05-02T21:55:49.770Z,2.50
2023-05-02T21:58:15.992Z,2.07
2023-05-02T22:00:43.351Z,2.13
2023-05-02T22:03:11.719Z,2.33
2023-05-02T22:05:39.812Z,2.60
2023-05-02T22:08:07.800Z,2.50
2023-05-02T22:10:37.081Z,2.27
2023-05-02T22:13:03.624Z,2.40
2023-05-02T22:15:30.063Z,2.37
2023-05-02T22:17:57.183Z,2.30
2023-05-02T22:20:25.164Z,2.60
2023-05-02T22:22:51.508Z,2.43
2023-05-02T22:25:17.878Z,2.23
2023-05-02T22:27:44.144Z,2.07
2023-05-02T22:30:10.519Z,2.30
2023-05-02T22:32:37.106Z,2.70
2023-05-02T22:35:03.931Z,2.47
2023-05-02T22:37:30.686Z,2.27
2023-05-02T22:39:56.924Z,2.33
2023-05-02T22:42:23.458Z,2.50
2023-05-02T22:44:54.520Z,2.30
2023-05-02T22:47:24.059Z,2.27
2023-05-02T22:49:52.151Z,2.17
2023-05-02T22:52:18.587Z,2.93
2023-05-02T22:54:44.895Z,2.53
2023-05-02T22:57:11.153Z,2.27
2023-05-02T22:59:37.381Z,2.10
2023-05-02T23:02:03.842Z,2.30
2023-05-02T23:04:32.749Z,2.47
2023-05-02T23:06:59.565Z,2.37
2023-05-02T23:09:25.890Z,2.30
2023-05-02T23:11:52.153Z,2.20
2023-05-02T23:14:20.588Z,2.83
2023-05-02T23:16:50.115Z,2.37
2023-05-02T23:19:17.073Z,2.30
2023-05-02T23:21:43.349Z,2.33
2023-05-02T23:24:10.540Z,2.70
2023-05-02T23:26:36.809Z,2.37
2023-05-02T23:29:03.042Z,1.93
2023-05-02T23:31:29.532Z,2.40
2023-05-02T23:33:55.998Z,2.33
2023-05-02T23:36:22.319Z,2.33
2023-05-02T23:38:48.560Z,2.20
2023-05-02T23:41:14.803Z,2.67
2023-05-02T23:43:41.143Z,2.73
2023-05-02T23:46:07.841Z,2.50
2023-05-02T23:48:34.091Z,2.60
2023-05-02T23:51:00.528Z,2.20
2023-05-02T23:53:26.752Z,2.37
2023-05-02T23:55:53.005Z,2.53
2023-05-02T23:58:19.234Z,3.20
